Time;durP1;ratioP1;P1;durP2;ratioP2;P2;SDS_P1;SDS_P2;PMS_P1;PMS_P2;Temp;Humidity;BMP_temperature;BMP_pressure;BME280_temperature;BME280_humidity;BME280_pressure;Samples;Min_cycle;Max_cycle;Signal;HPM_P1;HPM_P2
2021/09/28 16:14:38;;;;;;;3.65;0.70;;;;;;;16.61;68.08;99709.94;1991212;71;20631;-80
2021/09/28 16:18:38;;;;;;;8.14;1.08;;;;;;;16.41;69.77;99712.16;1999660;81;20184;-80
2021/09/28 16:30:18;;;;;;;5.38;0.79;;;;;;;15.95;71.30;99698.31;2017578;71;20234;-79
2021/09/28 16:34:08;;;;;;;2.47;0.89;;;;;;;15.88;71.02;99690.63;1971257;82;20191;-80
2021/09/28 16:37:40;;;;;;;2.06;0.70;;;;;;;15.81;69.91;99699.50;1966968;82;20984;-79
2021/09/28 16:46:24;;;;;;;1.91;0.77;;;;;;;15.46;71.95;99697.56;1955145;83;20199;-80
2021/09/28 18:26:35;;;;;;;4.09;0.70;;;;;;;12.57;82.42;99664.03;1988468;82;20130;-87
2021/09/28 18:30:46;;;;;;;1.51;0.75;;;;;;;12.46;82.63;99660.66;1962859;83;20248;-85
2021/09/28 18:34:55;;;;;;;1.71;0.74;;;;;;;12.42;83.01;99656.34;1961915;83;20235;-83
2021/09/28 18:39:16;;;;;;;2.01;0.85;;;;;;;12.33;83.26;99652.91;1959302;83;20154;-85
2021/09/28 18:43:19;;;;;;;3.31;0.89;;;;;;;12.26;83.58;99661.66;1956239;83;20321;-85
2021/09/28 18:46:57;;;;;;;2.09;0.90;;;;;;;12.22;83.84;99652.16;1957583;83;20236;-85
2021/09/28 18:50:49;;;;;;;1.99;0.84;;;;;;;12.17;83.81;99653.03;1962815;83;21539;-85
2021/09/28 18:54:33;;;;;;;2.00;0.84;;;;;;;12.14;83.76;99653.91;1951725;87;20146;-86
2021/09/28 18:58:19;;;;;;;2.86;0.77;;;;;;;12.05;84.20;99660.06;1955941;87;20143;-84
2021/09/28 19:02:00;;;;;;;0.63;0.63;;;;;;;12.02;84.61;99654.84;1958021;83;20145;-83
2021/09/28 19:05:39;;;;;;;2.76;0.74;;;;;;;11.96;84.94;99652.28;1965086;83;20144;-83
2021/09/28 19:09:09;;;;;;;2.09;0.80;;;;;;;11.91;85.32;99651.47;1971009;83;20135;-84
2021/09/28 19:12:38;;;;;;;1.36;1.09;;;;;;;11.89;85.62;99655.81;1977812;82;20139;-83
2021/09/28 19:15:42;;;;;;;2.56;0.98;;;;;;;11.86;85.57;99657.56;1982108;82;20179;-84
2021/09/28 19:18:53;;;;;;;3.72;1.36;;;;;;;11.82;85.70;99659.31;1986693;82;21648;-83
2021/09/28 19:22:35;;;;;;;2.39;0.80;;;;;;;11.82;85.93;99653.25;1975583;82;20364;-84
2021/09/28 19:25:56;;;;;;;2.24;0.99;;;;;;;11.86;85.89;99647.16;1966207;83;20303;-84
2021/09/28 21:06:12;;;;;;;4.04;1.51;;;;;;;11.15;89.68;99602.38;1993739;81;20130;-82
2021/09/28 21:09:15;;;;;;;2.28;1.60;;;;;;;11.17;89.73;99611.03;1998712;81;20345;-82
2021/09/28 21:12:18;;;;;;;4.84;1.50;;;;;;;11.21;89.97;99599.75;1990585;81;20122;-82
2021/09/28 21:15:21;;;;;;;3.29;1.91;;;;;;;11.25;90.33;99609.25;1991559;81;20152;-80
2021/09/28 21:18:24;;;;;;;1.95;1.76;;;;;;;11.30;90.53;99604.88;2002247;81;20138;-81
2021/09/28 21:21:27;;;;;;;2.29;1.75;;;;;;;11.33;90.57;99602.31;1994904;81;20168;-81
2021/09/28 21:24:30;;;;;;;3.75;2.20;;;;;;;11.37;90.63;99598.81;1984157;81;20142;-81
2021/09/28 21:27:33;;;;;;;3.54;2.03;;;;;;;11.40;90.57;99598.78;1991452;81;20148;-81
2021/09/28 21:30:39;;;;;;;3.03;2.11;;;;;;;11.41;90.59;99586.66;2006316;81;20146;-81
2021/09/28 21:33:47;;;;;;;3.86;2.14;;;;;;;11.48;90.67;99586.63;1995513;81;20122;-81
2021/09/28 21:36:58;;;;;;;4.07;1.98;;;;;;;11.56;90.39;99586.59;1998974;81;20138;-82
2021/09/28 21:40:02;;;;;;;5.69;2.13;;;;;;;11.58;90.42;99587.44;1992838;81;20138;-82
2021/09/28 21:43:06;;;;;;;5.05;2.36;;;;;;;11.59;90.31;99589.16;1992457;81;20233;-81
2021/09/28 21:46:09;;;;;;;2.96;1.74;;;;;;;11.60;90.14;99584.81;1993223;82;20197;-82
2021/09/28 21:49:13;;;;;;;2.81;2.05;;;;;;;11.60;89.95;99592.63;1992345;81;20134;-82
2021/09/28 21:52:16;;;;;;;2.86;1.92;;;;;;;11.60;89.78;99585.69;1989646;82;20150;-81
2021/09/28 21:55:20;;;;;;;4.71;1.81;;;;;;;11.59;89.92;99583.09;1999417;81;20197;-81
2021/09/28 21:58:23;;;;;;;2.64;1.58;;;;;;;11.60;90.00;99588.28;1998954;81;20186;-81
2021/09/28 22:01:27;;;;;;;3.84;1.74;;;;;;;11.65;89.93;99581.31;1990598;81;20170;-82
2021/09/28 22:04:30;;;;;;;3.03;1.77;;;;;;;11.69;89.99;99580.47;2004426;81;20138;-82
2021/09/28 22:07:34;;;;;;;4.05;1.80;;;;;;;11.68;89.83;99578.72;1996166;81;20222;-82
2021/09/28 22:10:40;;;;;;;2.76;1.64;;;;;;;11.69;89.75;99571.78;1992760;81;20126;-82
2021/09/28 22:13:45;;;;;;;1.89;1.69;;;;;;;11.70;89.59;99576.97;1992295;82;20190;-82
2021/09/28 22:16:50;;;;;;;6.54;2.06;;;;;;;11.69;89.79;99577.84;1998480;81;20160;-82
2021/09/28 22:19:54;;;;;;;2.30;1.66;;;;;;;11.68;90.08;99573.53;1982266;81;20291;-82
2021/09/28 22:23:00;;;;;;;3.61;1.84;;;;;;;11.71;90.24;99570.03;1987778;81;20122;-81
2021/09/28 22:26:04;;;;;;;1.85;1.73;;;;;;;11.74;90.08;99557.88;1989875;81;20231;-84
2021/09/28 22:29:10;;;;;;;2.26;1.73;;;;;;;11.82;89.72;99555.25;1987150;81;20126;-82
2021/09/28 22:32:16;;;;;;;2.64;1.83;;;;;;;11.88;89.68;99546.56;1998101;82;20158;-81
2021/09/28 22:35:20;;;;;;;2.78;1.51;;;;;;;11.92;89.66;99538.69;1994957;81;20138;-82
2021/09/28 22:38:33;;;;;;;3.76;1.58;;;;;;;11.90;89.77;99547.41;1987633;81;20181;-81
2021/09/28 22:41:37;;;;;;;5.40;1.60;;;;;;;11.86;89.65;99546.56;1984980;81;20237;-81
2021/09/28 22:44:41;;;;;;;2.79;1.61;;;;;;;11.82;89.21;99550.03;1994327;81;20130;-81
2021/09/28 22:47:44;;;;;;;2.35;1.79;;;;;;;11.78;88.81;99553.50;1996602;81;20227;-81
2021/09/28 22:50:48;;;;;;;3.81;1.71;;;;;;;11.70;88.64;99561.38;1992394;81;20154;-81
2021/09/28 22:53:51;;;;;;;2.50;1.64;;;;;;;11.64;88.80;99558.78;1986818;81;20177;-81
2021/09/28 22:56:55;;;;;;;2.64;1.40;;;;;;;11.60;89.25;99564.88;1990717;81;20198;-81
2021/09/28 22:59:59;;;;;;;1.77;1.59;;;;;;;11.57;89.64;99564.03;1989903;81;20155;-80
2021/09/28 23:34:58;;;;;;;4.55;1.42;;;;;;;11.00;90.74;99553.06;2247781;71;20240;31
2021/09/28 23:38:05;;;;;;;4.16;1.31;;;;;;;10.98;90.90;99552.19;2000362;82;20155;-82
2021/09/28 23:41:08;;;;;;;3.30;1.44;;;;;;;10.94;90.72;99556.50;2003933;82;20143;-81
2021/09/28 23:44:10;;;;;;;3.71;1.10;;;;;;;10.90;90.74;99557.41;2004833;82;20189;-81
2021/09/28 23:47:13;;;;;;;3.16;1.20;;;;;;;10.86;90.76;99559.16;2016240;78;58684;-82
2021/09/28 23:50:16;;;;;;;1.75;1.24;;;;;;;10.84;90.87;99566.09;2005971;82;20182;-81
2021/09/28 23:53:19;;;;;;;2.36;1.06;;;;;;;10.82;90.99;99562.63;1997624;82;20186;-82
2021/09/28 23:56:22;;;;;;;3.20;1.42;;;;;;;10.82;91.15;99565.22;1997974;82;20122;-82
2021/09/28 23:59:28;;;;;;;1.94;1.10;;;;;;;10.81;91.20;99560.03;2005363;82;20126;-81
